地図

経路データ

SID SEASON NUMBER BASIN SUBBASIN NAME ISO_TIME NATURE LAT LON WMO_WIND WMO_PRES WMO_AGENCY TRACK_TYPE DIST2LAND LANDFALL IFLAG USA_AGENCY USA_ATCF_ID USA_LAT USA_LON USA_RECORD USA_STATUS USA_WIND USA_PRES USA_SSHS USA_R34_NE USA_R34_SE USA_R34_SW USA_R34_NW USA_R50_NE USA_R50_SE USA_R50_SW USA_R50_NW USA_R64_NE USA_R64_SE USA_R64_SW USA_R64_NW USA_POCI USA_ROCI USA_RMW USA_EYE TOKYO_LAT TOKYO_LON TOKYO_GRADE TOKYO_WIND TOKYO_PRES TOKYO_R50_DIR TOKYO_R50_LONG TOKYO_R50_SHORT TOKYO_R30_DIR TOKYO_R30_LONG TOKYO_R30_SHORT TOKYO_LAND CMA_LAT CMA_LON CMA_CAT CMA_WIND CMA_PRES HKO_LAT HKO_LON HKO_CAT HKO_WIND HKO_PRES NEWDELHI_LAT NEWDELHI_LON NEWDELHI_GRADE NEWDELHI_WIND NEWDELHI_PRES NEWDELHI_CI NEWDELHI_DP NEWDELHI_POCI REUNION_LAT REUNION_LON REUNION_TYPE REUNION_WIND REUNION_PRES REUNION_TNUM REUNION_CI REUNION_RMW REUNION_R34_NE REUNION_R34_SE REUNION_R34_SW REUNION_R34_NW REUNION_R50_NE REUNION_R50_SE REUNION_R50_SW REUNION_R50_NW REUNION_R64_NE REUNION_R64_SE REUNION_R64_SW REUNION_R64_NW BOM_LAT BOM_LON BOM_TYPE BOM_WIND BOM_PRES BOM_TNUM BOM_CI BOM_RMW BOM_R34_NE BOM_R34_SE BOM_R34_SW BOM_R34_NW BOM_R50_NE BOM_R50_SE BOM_R50_SW BOM_R50_NW BOM_R64_NE BOM_R64_SE BOM_R64_SW BOM_R64_NW BOM_ROCI BOM_POCI BOM_EYE BOM_POS_METHOD BOM_PRES_METHOD NADI_LAT NADI_LON NADI_CAT NADI_WIND NADI_PRES WELLINGTON_LAT WELLINGTON_LON WELLINGTON_WIND WELLINGTON_PRES DS824_LAT DS824_LON DS824_STAGE DS824_WIND DS824_PRES TD9636_LAT TD9636_LON TD9636_STAGE TD9636_WIND TD9636_PRES TD9635_LAT TD9635_LON TD9635_WIND TD9635_PRES TD9635_ROCI NEUMANN_LAT NEUMANN_LON NEUMANN_CLASS NEUMANN_WIND NEUMANN_PRES MLC_LAT MLC_LON MLC_CLASS MLC_WIND MLC_PRES USA_GUST BOM_GUST BOM_GUST_PER REUNION_GUST REUNION_GUST_PER USA_SEAHGT USA_SEARAD_NE USA_SEARAD_SE USA_SEARAD_SW USA_SEARAD_NW STORM_SPEED STORM_DIR
1953240N14340 1953 48 NA NA CAROL 1953-08-28 06:00:00 TS 14.0000 -20.5000 25 hurdat_atl main 332 332 O_____________ hurdat_atl AL041953 14.0000 -20.5000 TD 25 -1 11 265
1953240N14340 1953 48 NA NA CAROL 1953-08-28 09:00:00 TS 13.9502 -21.0400 main 385 385 P_____________ AL041953 13.9502 -21.0400 TD 25 -1 11 265
1953240N14340 1953 48 NA NA CAROL 1953-08-28 12:00:00 TS 13.9000 -21.6000 25 hurdat_atl main 450 450 O_____________ hurdat_atl AL041953 13.9000 -21.6000 TD 25 -1 11 265
1953240N14340 1953 48 NA NA CAROL 1953-08-28 15:00:00 TS 13.8499 -22.1925 main 516 516 P_____________ AL041953 13.8499 -22.1925 TD 25 -1 12 265
1953240N14340 1953 48 NA NA CAROL 1953-08-28 18:00:00 TS 13.8000 -22.8000 25 hurdat_atl main 580 580 O_____________ hurdat_atl AL041953 13.8000 -22.8000 TD 25 -1 12 265
1953240N14340 1953 48 NA NA CAROL 1953-08-28 21:00:00 TS 13.7498 -23.3925 main 646 646 P_____________ AL041953 13.7498 -23.3925 TD 25 -1 12 265
1953240N14340 1953 48 NA NA CAROL 1953-08-29 00:00:00 TS 13.7000 -24.0000 25 hurdat_atl main 709 709 O_____________ hurdat_atl AL041953 13.7000 -24.0000 TD 25 -1 12 265
1953240N14340 1953 48 NA NA CAROL 1953-08-29 03:00:00 TS 13.6498 -24.6350 main 775 775 P_____________ AL041953 13.6498 -24.6350 TD 27 -1 13 265
1953240N14340 1953 48 NA NA CAROL 1953-08-29 06:00:00 TS 13.6000 -25.3000 30 hurdat_atl main 850 850 O_____________ hurdat_atl AL041953 13.6000 -25.3000 TD 30 -1 13 265
1953240N14340 1953 48 NA NA CAROL 1953-08-29 09:00:00 TS 13.5348 -25.9851 main 926 926 P_____________ AL041953 13.5348 -25.9851 TD 30 -1 14 266
1953240N14340 1953 48 NA NA CAROL 1953-08-29 12:00:00 TS 13.5000 -26.7000 30 hurdat_atl main 1001 1001 O_____________ hurdat_atl AL041953 13.5000 -26.7000 TD 30 -1 14 270
1953240N14340 1953 48 NA NA CAROL 1953-08-29 15:00:00 TS 13.5272 -27.4275 main 1076 1076 P_____________ AL041953 13.5272 -27.4275 TD 30 -1 15 274
1953240N14340 1953 48 NA NA CAROL 1953-08-29 18:00:00 TS 13.6000 -28.2000 30 hurdat_atl main 1160 1160 O_____________ hurdat_atl AL041953 13.6000 -28.2000 TD 30 -1 16 276
1953240N14340 1953 48 NA NA CAROL 1953-08-29 21:00:00 TS 13.6999 -29.0349 main 1245 1245 P_____________ AL041953 13.6999 -29.0349 TD 30 -1 17 277
1953240N14340 1953 48 NA NA CAROL 1953-08-30 00:00:00 TS 13.8000 -29.9000 30 hurdat_atl main 1340 1340 O_____________ hurdat_atl AL041953 13.8000 -29.9000 TD 30 -1 17 275
1953240N14340 1953 48 NA NA CAROL 1953-08-30 03:00:00 TS 13.8572 -30.7501 main 1436 1436 P_____________ AL041953 13.8572 -30.7501 TD 30 -1 17 273
1953240N14340 1953 48 NA NA CAROL 1953-08-30 06:00:00 TS 13.9000 -31.6000 30 hurdat_atl main 1522 1522 O_____________ hurdat_atl AL041953 13.9000 -31.6000 TD 30 -1 17 273
1953240N14340 1953 48 NA NA CAROL 1953-08-30 09:00:00 TS 13.9572 -32.4500 main 1607 1607 P_____________ AL041953 13.9572 -32.4500 TD 30 -1 17 273
1953240N14340 1953 48 NA NA CAROL 1953-08-30 12:00:00 TS 14.0000 -33.3000 30 hurdat_atl main 1704 1704 O_____________ hurdat_atl AL041953 14.0000 -33.3000 TD 30 -1 17 272
1953240N14340 1953 48 NA NA CAROL 1953-08-30 15:00:00 TS 14.0072 -34.1501 main 1801 1801 P_____________ AL041953 14.0072 -34.1501 TD 30 -1 17 270
1953240N14340 1953 48 NA NA CAROL 1953-08-30 18:00:00 TS 14.0000 -35.0000 30 hurdat_atl main 1887 1887 O_____________ hurdat_atl AL041953 14.0000 -35.0000 TD 30 -1 17 270
1953240N14340 1953 48 NA NA CAROL 1953-08-30 21:00:00 TS 13.9997 -35.8500 main 1944 1924 P_____________ AL041953 13.9997 -35.8500 TD 30 -1 17 270
1953240N14340 1953 48 NA NA CAROL 1953-08-31 00:00:00 TS 14.0000 -36.7000 30 hurdat_atl main 1924 1863 O_____________ hurdat_atl AL041953 14.0000 -36.7000 TD 30 -1 17 270
1953240N14340 1953 48 NA NA CAROL 1953-08-31 03:00:00 TS 13.9997 -37.5500 main 1863 1784 P_____________ AL041953 13.9997 -37.5500 TD 32 -1 17 270
1953240N14340 1953 48 NA NA CAROL 1953-08-31 06:00:00 TS 14.0000 -38.4000 35 hurdat_atl main 1784 1715 O_____________ hurdat_atl AL041953 14.0000 -38.4000 TS 35 0 17 270
1953240N14340 1953 48 NA NA CAROL 1953-08-31 09:00:00 TS 13.9997 -39.2500 main 1715 1640 P_____________ AL041953 13.9997 -39.2500 TS 37 0 17 270
1953240N14340 1953 48 NA NA CAROL 1953-08-31 12:00:00 TS 14.0000 -40.1000 40 hurdat_atl main 1640 1575 O_____________ hurdat_atl AL041953 14.0000 -40.1000 TS 40 0 17 270
1953240N14340 1953 48 NA NA CAROL 1953-08-31 15:00:00 TS 13.9998 -40.9575 main 1567 1505 P_____________ AL041953 13.9998 -40.9575 TS 45 0 17 270
1953240N14340 1953 48 NA NA CAROL 1953-08-31 18:00:00 TS 14.0000 -41.8000 50 hurdat_atl main 1505 1446 O_____________ hurdat_atl AL041953 14.0000 -41.8000 TS 50 0 16 270
1953240N14340 1953 48 NA NA CAROL 1953-08-31 21:00:00 TS 13.9997 -42.6075 main 1446 1389 P_____________ AL041953 13.9997 -42.6075 TS 55 0 16 270
1953240N14340 1953 48 NA NA CAROL 1953-09-01 00:00:00 TS 14.0000 -43.4000 60 hurdat_atl main 1389 1336 O_____________ hurdat_atl AL041953 14.0000 -43.4000 TS 60 0 15 270
1953240N14340 1953 48 NA NA CAROL 1953-09-01 03:00:00 TS 13.9997 -44.2000 main 1336 1287 P_____________ AL041953 13.9997 -44.2000 TS 65 1 16 270
1953240N14340 1953 48 NA NA CAROL 1953-09-01 06:00:00 TS 14.0000 -45.0000 70 hurdat_atl main 1287 1235 O_____________ hurdat_atl AL041953 14.0000 -45.0000 HU 70 1 16 270
1953240N14340 1953 48 NA NA CAROL 1953-09-01 09:00:00 TS 13.9922 -45.8001 main 1235 1184 P_____________ AL041953 13.9922 -45.8001 HU 75 1 16 270
1953240N14340 1953 48 NA NA CAROL 1953-09-01 12:00:00 TS 14.0000 -46.6000 80 hurdat_atl main 1184 1138 O_____________ hurdat_atl AL041953 14.0000 -46.6000 HU 80 1 16 271
1953240N14340 1953 48 NA NA CAROL 1953-09-01 15:00:00 TS 14.0273 -47.4076 main 1138 1107 P_____________ AL041953 14.0273 -47.4076 HU 85 2 16 274
1953240N14340 1953 48 NA NA CAROL 1953-09-01 18:00:00 TS 14.1000 -48.2000 90 hurdat_atl main 1107 1084 O_____________ hurdat_atl AL041953 14.1000 -48.2000 HU 90 2 15 277
1953240N14340 1953 48 NA NA CAROL 1953-09-01 21:00:00 TS 14.2122 -48.9577 main 1080 1070 P_____________ AL041953 14.2122 -48.9577 HU 95 2 15 282
1953240N14340 1953 48 NA NA CAROL 1953-09-02 00:00:00 TS 14.4000 -49.7000 100 hurdat_atl main 1071 1059 O_____________ hurdat_atl AL041953 14.4000 -49.7000 HU 100 3 15 288
1953240N14340 1953 48 NA NA CAROL 1953-09-02 03:00:00 TS 14.6698 -50.4501 main 1065 1060 P_____________ AL041953 14.6698 -50.4501 HU 105 3 16 292
1953240N14340 1953 48 NA NA CAROL 1953-09-02 06:00:00 TS 15.0000 -51.2000 110 hurdat_atl main 1070 1067 O_____________ hurdat_atl AL041953 15.0000 -51.2000 HU 110 3 16 295
1953240N14340 1953 48 NA NA CAROL 1953-09-02 09:00:00 TS 15.3347 -51.9428 main 1082 1058 P_____________ AL041953 15.3347 -51.9428 HU 115 4 16 296
1953240N14340 1953 48 NA NA CAROL 1953-09-02 12:00:00 TS 15.7000 -52.7000 120 944 hurdat_atl main 1058 1014 O_____________ hurdat_atl AL041953 15.7000 -52.7000 HU 120 944 4 17 297
1953240N14340 1953 48 NA NA CAROL 1953-09-02 15:00:00 TS 16.0923 -53.4927 main 1011 972 P_____________ AL041953 16.0923 -53.4927 HU 122 4 17 297
1953240N14340 1953 48 NA NA CAROL 1953-09-02 18:00:00 TS 16.5000 -54.3000 125 hurdat_atl main 972 941 O_____________ hurdat_atl AL041953 16.5000 -54.3000 HU 125 4 18 297
1953240N14340 1953 48 NA NA CAROL 1953-09-02 21:00:00 TS 16.8924 -55.1153 main 942 918 P_____________ AL041953 16.8924 -55.1153 HU 127 4 17 298
1953240N14340 1953 48 NA NA CAROL 1953-09-03 00:00:00 TS 17.3000 -55.9000 130 hurdat_atl main 921 912 O_____________ hurdat_atl AL041953 17.3000 -55.9000 HU 130 4 17 301
1953240N14340 1953 48 NA NA CAROL 1953-09-03 03:00:00 TS 17.7421 -56.6154 main 915 876 P_____________ AL041953 17.7421 -56.6154 HU 132 4 16 304
1953240N14340 1953 48 NA NA CAROL 1953-09-03 06:00:00 TS 18.2000 -57.3000 135 hurdat_atl main 876 801 O_____________ hurdat_atl AL041953 18.2000 -57.3000 HU 135 4 16 305
1953240N14340 1953 48 NA NA CAROL 1953-09-03 09:00:00 TS 18.6497 -58.0004 main 801 730 P_____________ AL041953 18.6497 -58.0004 HU 137 5 16 304
1953240N14340 1953 48 NA NA CAROL 1953-09-03 12:00:00 TS 19.1000 -58.7000 140 hurdat_atl main 730 663 O_____________ hurdat_atl AL041953 19.1000 -58.7000 HU 140 5 16 303
1953240N14340 1953 48 NA NA CAROL 1953-09-03 15:00:00 TS 19.5274 -59.4155 main 663 604 P_____________ AL041953 19.5274 -59.4155 HU 140 5 16 304
1953240N14340 1953 48 NA NA CAROL 1953-09-03 18:00:00 TS 20.0000 -60.1000 140 929 hurdat_atl main 604 564 O_____________ hurdat_atl AL041953 20.0000 -60.1000 HU 140 929 5 16 311
1953240N14340 1953 48 NA NA CAROL 1953-09-03 21:00:00 TS 20.5772 -60.7228 main 569 548 P_____________ AL041953 20.5772 -60.7228 HU 137 5 16 317
1953240N14340 1953 48 NA NA CAROL 1953-09-04 00:00:00 TS 21.2000 -61.3000 135 hurdat_atl main 548 541 O_____________ hurdat_atl AL041953 21.2000 -61.3000 HU 135 4 16 319
1953240N14340 1953 48 NA NA CAROL 1953-09-04 03:00:00 TS 21.7999 -61.8802 main 542 542 P_____________ AL041953 21.7999 -61.8802 HU 130 4 16 320
1953240N14340 1953 48 NA NA CAROL 1953-09-04 06:00:00 TS 22.4000 -62.4000 125 hurdat_atl main 557 557 O_____________ hurdat_atl AL041953 22.4000 -62.4000 HU 125 4 15 324
1953240N14340 1953 48 NA NA CAROL 1953-09-04 09:00:00 TS 22.9922 -62.8232 main 591 591 P_____________ AL041953 22.9922 -62.8232 HU 122 4 14 328
1953240N14340 1953 48 NA NA CAROL 1953-09-04 12:00:00 TS 23.6000 -63.2000 120 hurdat_atl main 632 632 O_____________ hurdat_atl AL041953 23.6000 -63.2000 HU 120 4 14 330
1953240N14340 1953 48 NA NA CAROL 1953-09-04 15:00:00 TS 24.2424 -63.6003 main 680 680 P_____________ AL041953 24.2424 -63.6003 HU 117 4 15 331
1953240N14340 1953 48 NA NA CAROL 1953-09-04 18:00:00 TS 24.9000 -64.0000 115 942 hurdat_atl main 745 745 O_____________ hurdat_atl AL041953 24.9000 -64.0000 HU 115 942 4 15 331
1953240N14340 1953 48 NA NA CAROL 1953-09-04 21:00:00 TS 25.5498 -64.3931 main 803 803 P_____________ AL041953 25.5498 -64.3931 HU 115 4 15 331
1953240N14340 1953 48 NA NA CAROL 1953-09-05 00:00:00 TS 26.2000 -64.8000 115 hurdat_atl main 875 875 O_____________ hurdat_atl AL041953 26.2000 -64.8000 HU 115 4 15 329
1953240N14340 1953 48 NA NA CAROL 1953-09-05 03:00:00 TS 26.8500 -65.2503 main 932 932 P_____________ AL041953 26.8500 -65.2503 HU 115 4 15 328
1953240N14340 1953 48 NA NA CAROL 1953-09-05 06:00:00 TS 27.5000 -65.7000 115 hurdat_atl main 985 985 O_____________ hurdat_atl AL041953 27.5000 -65.7000 HU 115 4 15 330
1953240N14340 1953 48 NA NA CAROL 1953-09-05 09:00:00 TS 28.1649 -66.1153 main 1039 1035 P_____________ AL041953 28.1649 -66.1153 HU 112 3 15 331
1953240N14340 1953 48 NA NA CAROL 1953-09-05 12:00:00 TS 28.8000 -66.5000 110 945 hurdat_atl main 1071 1071 O_____________ hurdat_atl AL041953 28.8000 -66.5000 HU 110 945 3 14 332
1953240N14340 1953 48 NA NA CAROL 1953-09-05 15:00:00 TS 29.3648 -66.8582 main 1074 1015 P_____________ AL041953 29.3648 -66.8582 HU 107 3 13 331
1953240N14340 1953 48 NA NA CAROL 1953-09-05 18:00:00 TS 29.9000 -67.2000 105 hurdat_atl main 1015 956 O_____________ hurdat_atl AL041953 29.9000 -67.2000 HU 105 3 12 331
1953240N14340 1953 48 NA NA CAROL 1953-09-05 21:00:00 TS 30.4424 -67.5505 main 949 883 P_____________ AL041953 30.4424 -67.5505 HU 102 3 13 331
1953240N14340 1953 48 NA NA CAROL 1953-09-06 00:00:00 TS 31.0000 -67.9000 100 hurdat_atl main 883 820 O_____________ hurdat_atl AL041953 31.0000 -67.9000 HU 100 3 13 333
1953240N14340 1953 48 NA NA CAROL 1953-09-06 03:00:00 TS 31.5923 -68.2430 main 820 750 P_____________ AL041953 31.5923 -68.2430 HU 97 3 13 334
1953240N14340 1953 48 NA NA CAROL 1953-09-06 06:00:00 TS 32.2000 -68.6000 95 hurdat_atl main 750 688 O_____________ hurdat_atl AL041953 32.2000 -68.6000 HU 95 2 13 331
1953240N14340 1953 48 NA NA CAROL 1953-09-06 09:00:00 TS 32.7701 -69.0079 main 683 617 P_____________ AL041953 32.7701 -69.0079 HU 92 2 14 331
1953240N14340 1953 48 NA NA CAROL 1953-09-06 12:00:00 TS 33.4000 -69.4000 90 hurdat_atl main 617 560 O_____________ hurdat_atl AL041953 33.4000 -69.4000 HU 90 2 15 336
1953240N14340 1953 48 NA NA CAROL 1953-09-06 15:00:00 TS 34.1399 -69.7232 main 560 507 P_____________ AL041953 34.1399 -69.7232 HU 87 2 17 343
1953240N14340 1953 48 NA NA CAROL 1953-09-06 18:00:00 TS 35.0000 -70.0000 85 962 hurdat_atl main 505 467 O_____________ hurdat_atl AL041953 35.0000 -70.0000 HU 85 962 2 19 345
1953240N14340 1953 48 NA NA CAROL 1953-09-06 21:00:00 TS 35.9850 -70.3302 main 467 433 P_____________ AL041953 35.9850 -70.3302 HU 82 1 20 349
1953240N14340 1953 48 NA NA CAROL 1953-09-07 00:00:00 TS 37.0000 -70.5000 80 hurdat_atl main 429 373 O_____________ hurdat_atl AL041953 37.0000 -70.5000 HU 80 1 19 358
1953240N14340 1953 48 NA NA CAROL 1953-09-07 03:00:00 TS 37.9141 -70.4065 main 373 306 P_____________ AL041953 37.9141 -70.4065 HU 77 1 18 12
1953240N14340 1953 48 NA NA CAROL 1953-09-07 06:00:00 TS 38.8000 -70.0000 75 hurdat_atl main 306 240 O_____________ hurdat_atl AL041953 38.8000 -70.0000 HU 75 1 19 27
1953240N14340 1953 48 NA NA CAROL 1953-09-07 09:00:00 TS 39.6259 -69.2806 main 240 183 P_____________ AL041953 39.6259 -69.2806 HU 75 1 22 34
1953240N14340 1953 48 NA NA CAROL 1953-09-07 12:00:00 TS 40.6000 -68.4000 75 hurdat_atl main 181 168 O_____________ hurdat_atl AL041953 40.6000 -68.4000 HU 75 1 27 29
1953240N14340 1953 48 NA NA CAROL 1953-09-07 15:00:00 TS 41.9820 -67.5561 main 199 71 P_____________ AL041953 41.9820 -67.5561 HU 75 1 30 23
1953240N14340 1953 48 NA NA CAROL 1953-09-07 18:00:00 TS 43.4000 -66.8000 75 hurdat_atl main 65 15 O_____________ hurdat_atl AL041953 43.4000 -66.8000 HU 75 1 28 21
1953240N14340 1953 48 NA NA CAROL 1953-09-07 20:00:00 TS 44.2000 -66.4000 75 hurdat_atl main 19 7 O_____________ hurdat_atl AL041953 44.2000 -66.4000 L HU 75 1 28 20
1953240N14340 1953 48 NA NA CAROL 1953-09-07 21:00:00 TS 44.7275 -66.1151 main 19 0 P_____________ AL041953 44.7275 -66.1151 HU 72 1 35 21
1953240N14340 1953 48 NA NA CAROL 1953-09-07 22:00:00 TS 45.3000 -65.8000 70 hurdat_atl main 0 0 O_____________ hurdat_atl AL041953 45.3000 -65.8000 L HU 70 1 36 21
1953240N14340 1953 48 NA NA CAROL 1953-09-08 00:00:00 TS 46.4000 -65.2000 60 hurdat_atl main 0 0 O_____________ hurdat_atl AL041953 46.4000 -65.2000 TS 60 0 33 24
1953240N14340 1953 48 NA NA CAROL 1953-09-08 03:00:00 TS 47.8199 -64.1423 main 46 26 P_____________ AL041953 47.8199 -64.1423 TS 55 0 31 29
1953240N14340 1953 48 NA NA CAROL 1953-09-08 06:00:00 ET 49.1000 -63.0000 50 hurdat_atl main 13 0 O_____________ hurdat_atl AL041953 49.1000 -63.0000 EX 50 -4 30 29
1953240N14340 1953 48 NA NA CAROL 1953-09-08 09:00:00 ET 50.4486 -61.9075 main 0 0 P_____________ AL041953 50.4486 -61.9075 EX 47 -4 30 27
1953240N14340 1953 48 NA NA CAROL 1953-09-08 12:00:00 ET 51.8000 -60.8000 45 hurdat_atl main 0 0 O_____________ hurdat_atl AL041953 51.8000 -60.8000 EX 45 -4 31 28
1953240N14340 1953 48 NA NA CAROL 1953-09-08 15:00:00 ET 53.1646 -59.5966 main 0 0 P_____________ AL041953 53.1646 -59.5966 EX 45 -4 31 28
1953240N14340 1953 48 NA NA CAROL 1953-09-08 18:00:00 ET 54.5000 -58.4000 45 hurdat_atl main 0 0 O_____________ hurdat_atl AL041953 54.5000 -58.4000 EX 45 -4 29 27
1953240N14340 1953 48 NA NA CAROL 1953-09-08 21:00:00 ET 55.7637 -57.2686 main 119 119 P_____________ AL041953 55.7637 -57.2686 EX 45 -4 28 26
1953240N14340 1953 48 NA NA CAROL 1953-09-09 00:00:00 ET 57.0000 -56.2000 45 hurdat_atl main 268 268 O_____________ hurdat_atl AL041953 57.0000 -56.2000 EX 45 -4 27 25
1953240N14340 1953 48 NA NA CAROL 1953-09-09 03:00:00 ET 58.2639 -55.1358 main 393 353 P_____________ AL041953 58.2639 -55.1358 EX 45 -4 27 24
1953240N14340 1953 48 NA NA CAROL 1953-09-09 06:00:00 ET 59.5000 -54.1000 45 hurdat_atl main 342 226 O_____________ hurdat_atl AL041953 59.5000 -54.1000 EX 45 -4 26 24
1953240N14340 1953 48 NA NA CAROL 1953-09-09 09:00:00 ET 60.6716 -53.0668 main 221 127 P_____________ AL041953 60.6716 -53.0668 EX 45 -4 25 24
1953240N14340 1953 48 NA NA CAROL 1953-09-09 12:00:00 ET 61.8000 -52.0000 45 hurdat_atl main 116 O_____________ hurdat_atl AL041953 61.8000 -52.0000 EX 45 -4 25 24

IBTrACS Databaseについて

本データベースは、米国NOAAが公開する1842年以降の世界の熱帯低気圧のベストトラックデータアーカイブInternational Best Track Archive for Climate Stewardship (IBTrACS)を、ウェブで閲覧しやすい形式に変換したものです。

最終更新日:2021-11-26